Time;durP1;ratioP1;P1;durP2;ratioP2;P2;SDS_P1;SDS_P2;PMS_P1;PMS_P2;Temp;Humidity;BMP_temperature;BMP_pressure;BME280_temperature;BME280_humidity;BME280_pressure;Samples;Min_cycle;Max_cycle;Signal;HPM_P1;HPM_P2
2022/12/25 00:01:42;;;;;;;7.03;1.98;;;;;;;8.48;100.00;101508.06;5055983;27;96469;-30
2022/12/25 00:04:08;;;;;;;5.35;2.80;;;;;;;8.49;100.00;101513.41;5055570;27;96817;-30
2022/12/25 00:06:33;;;;;;;5.03;2.05;;;;;;;8.50;100.00;101509.75;5055338;27;97898;-30
2022/12/25 00:08:58;;;;;;;4.65;2.28;;;;;;;8.52;100.00;101507.00;5055781;27;97348;-30
2022/12/25 00:11:24;;;;;;;13.38;2.92;;;;;;;8.49;100.00;101505.31;5055590;27;96675;-30
2022/12/25 00:13:49;;;;;;;8.43;2.33;;;;;;;8.53;100.00;101507.88;5055745;27;96803;-31
2022/12/25 00:16:18;;;;;;;9.70;3.30;;;;;;;8.52;100.00;101508.81;5055394;27;98020;-30
2022/12/25 00:18:43;;;;;;;4.95;2.22;;;;;;;8.52;100.00;101506.13;5053896;27;100803;-30
2022/12/25 00:21:09;;;;;;;5.72;2.10;;;;;;;8.53;100.00;101494.38;5055077;27;96741;-30
2022/12/25 00:23:35;;;;;;;4.35;2.28;;;;;;;8.57;100.00;101498.69;5054149;27;96942;-30
2022/12/25 00:26:12;;;;;;;4.88;2.75;;;;;;;8.54;100.00;101488.91;5054007;27;99363;-30
2022/12/25 00:28:38;;;;;;;6.45;2.80;;;;;;;8.59;100.00;101494.13;5053821;27;100763;-30
2022/12/25 00:31:08;;;;;;;3.58;1.90;;;;;;;8.60;100.00;101493.16;5054953;27;96681;-31
2022/12/25 00:33:37;;;;;;;4.55;2.33;;;;;;;8.60;100.00;101494.03;5054123;27;96825;-30
2022/12/25 00:36:05;;;;;;;6.85;2.33;;;;;;;8.61;100.00;101500.34;5053481;27;100783;-30
2022/12/25 00:38:32;;;;;;;6.30;2.70;;;;;;;8.60;100.00;101494.03;5053938;27;101176;-30
2022/12/25 00:40:57;;;;;;;4.07;2.22;;;;;;;8.61;100.00;101503.03;5053730;27;96743;-31
2022/12/25 00:43:22;;;;;;;5.90;2.72;;;;;;;8.62;100.00;101504.78;5055539;27;96667;-31
2022/12/25 00:45:57;;;;;;;6.75;2.90;;;;;;;8.62;100.00;101496.69;5054181;27;99408;-30
2022/12/25 00:48:23;;;;;;;6.00;2.90;;;;;;;8.65;100.00;101502.84;5054698;27;97275;-30
2022/12/25 00:50:52;;;;;;;5.90;2.53;;;;;;;8.67;100.00;101506.31;5053809;27;96786;-30
2022/12/25 00:53:18;;;;;;;9.82;2.75;;;;;;;8.69;100.00;101498.16;5054688;27;96853;-30
2022/12/25 00:55:43;;;;;;;7.30;2.45;;;;;;;8.66;100.00;101499.19;5054894;27;98102;-30
2022/12/25 00:58:08;;;;;;;7.20;3.25;;;;;;;8.69;100.00;101506.28;5054666;27;98716;-30
2022/12/25 01:00:34;;;;;;;5.60;2.63;;;;;;;8.73;100.00;101510.59;5054980;27;96525;-30
2022/12/25 01:02:59;;;;;;;4.93;2.60;;;;;;;8.74;100.00;101517.75;5055351;27;96737;-30
2022/12/25 01:05:24;;;;;;;9.70;3.10;;;;;;;8.75;100.00;101513.22;5054822;27;97201;-30
2022/12/25 01:07:50;;;;;;;5.90;2.20;;;;;;;8.74;100.00;101516.88;5054428;27;97784;-30
2022/12/25 01:10:21;;;;;;;10.25;3.15;;;;;;;8.77;100.00;101524.84;5054575;27;96535;-30
2022/12/25 01:12:48;;;;;;;5.03;2.60;;;;;;;8.79;100.00;101531.06;5054642;27;96691;-30
2022/12/25 01:15:14;;;;;;;6.15;3.22;;;;;;;8.80;100.00;101528.31;5053168;27;100872;-31
2022/12/25 01:17:40;;;;;;;6.90;2.95;;;;;;;8.79;100.00;101521.13;5054591;27;97839;-30
2022/12/25 01:20:06;;;;;;;4.93;2.95;;;;;;;8.82;100.00;101529.13;5053310;27;96715;-30
2022/12/25 01:22:32;;;;;;;5.25;2.63;;;;;;;8.83;100.00;101520.06;5052352;27;96888;-31
2022/12/25 01:24:57;;;;;;;7.20;2.75;;;;;;;8.85;100.00;101520.88;5054426;27;97879;-30
2022/12/25 01:27:23;;;;;;;5.43;2.45;;;;;;;8.83;100.00;101508.38;5054433;27;98722;-31
2022/12/25 01:29:48;;;;;;;9.88;2.72;;;;;;;8.84;100.00;101507.44;5054935;27;96449;-31
2022/12/25 01:32:13;;;;;;;7.60;2.97;;;;;;;8.86;100.00;101513.66;5054797;27;96802;-30
2022/12/25 01:34:38;;;;;;;4.82;2.78;;;;;;;8.85;100.00;101509.19;5053890;27;98496;-31
2022/12/25 01:37:04;;;;;;;7.75;3.05;;;;;;;8.84;100.00;101521.84;5054519;27;97746;-31
2022/12/25 01:39:29;;;;;;;4.95;2.90;;;;;;;8.84;100.00;101518.22;5057969;27;96747;-30
2022/12/25 01:41:55;;;;;;;7.03;3.10;;;;;;;8.84;100.00;101516.44;5056588;27;96841;-30
2022/12/25 01:44:36;;;;;;;7.28;3.17;;;;;;;8.86;100.00;101522.63;5056085;27;101136;-30
2022/12/25 01:47:03;;;;;;;7.80;3.38;;;;;;;8.86;100.00;101510.94;5057686;27;97469;-30
2022/12/25 01:49:30;;;;;;;9.55;3.88;;;;;;;8.85;100.00;101517.31;5057590;27;97407;-30
2022/12/25 01:52:01;;;;;;;8.82;3.85;;;;;;;8.84;100.00;101519.13;5056836;27;97147;-32
2022/12/25 01:54:32;;;;;;;5.00;2.88;;;;;;;8.85;100.00;101520.00;5056169;27;101111;-30
2022/12/25 01:57:01;;;;;;;7.47;3.60;;;;;;;8.84;100.00;101524.53;5056090;27;100948;-30
2022/12/25 01:59:28;;;;;;;5.10;3.17;;;;;;;8.84;100.00;101532.63;5055703;27;96616;-30
2022/12/25 02:01:54;;;;;;;6.57;3.65;;;;;;;8.85;100.00;101528.09;5057528;27;96771;-31
2022/12/25 02:04:37;;;;;;;10.70;2.83;;;;;;;8.87;100.00;101537.91;5056028;27;100906;-31
2022/12/25 02:07:05;;;;;;;7.35;2.92;;;;;;;8.88;100.00;101530.66;5057326;27;97902;-31
2022/12/25 02:09:31;;;;;;;7.93;3.50;;;;;;;8.87;100.00;101526.22;5056256;27;96639;-30
2022/12/25 02:11:57;;;;;;;6.20;3.60;;;;;;;8.88;100.00;101533.38;5055969;27;96809;-30
2022/12/25 02:14:24;;;;;;;5.90;3.25;;;;;;;8.88;100.00;101519.88;5056985;27;97911;-30
2022/12/25 02:17:00;;;;;;;5.25;2.55;;;;;;;8.90;100.00;101526.09;5056033;27;100695;-30
2022/12/25 02:19:41;;;;;;;6.00;3.10;;;;;;;8.92;100.00;101525.06;5055990;27;96659;-30
2022/12/25 02:22:27;;;;;;;6.53;2.72;;;;;;;8.92;100.00;101518.78;5055412;27;96781;-30
2022/12/25 02:25:07;;;;;;;9.20;3.63;;;;;;;8.93;100.00;101512.44;5055021;27;100994;-30
2022/12/25 02:28:09;;;;;;;4.97;2.95;;;;;;;8.91;100.00;101507.13;5055502;27;99145;-30
2022/12/25 02:30:41;;;;;;;6.47;3.53;;;;;;;8.93;100.00;101507.03;5055689;27;96669;-30
2022/12/25 02:36:02;;;;;;;;;;;;;;;8.93;100.00;101502.50;5057501;27;96446;-30
2022/12/25 02:38:35;;;;;;;9.50;3.83;;;;;;;8.96;100.00;101489.78;5055423;27;101418;-31
2022/12/25 02:41:08;;;;;;;10.63;3.95;;;;;;;8.95;100.00;101488.94;5055503;27;96683;-30
2022/12/25 03:11:29;;;;;;;7.85;3.40;;;;;;;8.99;100.00;101441.03;5056683;27;97185;-31
2022/12/25 03:11:46;;;;;;;7.43;3.63;;;;;;;9.00;100.00;101445.50;5056648;27;98401;-31
2022/12/25 03:16:58;;;;;;;8.88;4.72;;;;;;;8.96;100.00;101436.63;5056598;27;97173;-30
2022/12/25 03:28:00;;;;;;;6.25;3.55;;;;;;;9.01;100.00;101436.41;5056598;27;96502;-30
2022/12/25 03:42:38;;;;;;;12.52;3.65;;;;;;;9.04;100.00;101439.00;5053247;27;97828;-31
2022/12/25 04:37:15;;;;;;;5.18;2.45;;;;;;;8.98;100.00;101437.44;5055452;27;97119;-30
2022/12/25 04:39:41;;;;;;;5.88;2.92;;;;;;;8.99;100.00;101435.66;5055127;27;97905;-30
2022/12/25 04:42:06;;;;;;;4.10;2.25;;;;;;;8.99;100.00;101432.94;5054897;27;96563;-30
2022/12/25 04:44:31;;;;;;;4.57;2.22;;;;;;;8.94;100.00;101422.34;5055270;27;96705;-32
2022/12/25 04:46:57;;;;;;;3.83;2.58;;;;;;;8.94;100.00;101433.16;5054783;27;97864;-30
2022/12/25 04:49:22;;;;;;;5.05;2.40;;;;;;;8.93;100.00;101431.38;5054982;27;97689;-29
2022/12/25 04:51:47;;;;;;;4.13;2.10;;;;;;;8.93;100.00;101423.28;5055295;27;96557;-30
2022/12/25 04:54:13;;;;;;;4.90;2.75;;;;;;;8.91;100.00;101422.47;5053708;27;96840;-30
2022/12/25 04:56:38;;;;;;;4.47;2.42;;;;;;;8.90;100.00;101412.63;5054727;27;98048;-30
2022/12/25 04:59:03;;;;;;;6.32;2.13;;;;;;;8.88;100.00;101407.25;5055075;27;97289;-29
2022/12/25 05:01:29;;;;;;;5.03;2.47;;;;;;;8.86;100.00;101402.88;5055184;27;96664;-30
2022/12/25 05:03:54;;;;;;;3.97;1.75;;;;;;;8.86;100.00;101406.47;5055348;27;96803;-31
2022/12/25 05:06:19;;;;;;;3.17;1.77;;;;;;;8.80;100.00;101395.94;5053954;27;99311;-30
2022/12/25 05:08:45;;;;;;;3.90;2.45;;;;;;;8.81;100.00;101397.69;5054375;27;99404;-30
2022/12/25 05:11:13;;;;;;;2.50;1.55;;;;;;;8.79;100.00;101391.47;5054972;27;96627;-30
2022/12/25 05:13:38;;;;;;;3.20;1.63;;;;;;;8.79;100.00;101388.78;5055835;27;96977;-30
2022/12/25 05:16:06;;;;;;;3.83;1.85;;;;;;;8.79;100.00;101396.00;5057900;27;99129;-30
2022/12/25 05:18:31;;;;;;;4.35;2.17;;;;;;;8.76;100.00;101385.34;5056650;27;101043;-31
2022/12/25 05:20:57;;;;;;;6.75;2.35;;;;;;;8.76;100.00;101393.44;5058255;27;96648;-32
2022/12/25 05:23:22;;;;;;;6.25;2.38;;;;;;;8.76;100.00;101391.63;5058306;27;96943;-30
2022/12/25 05:25:48;;;;;;;2.72;1.65;;;;;;;8.76;100.00;101390.75;5057977;27;98032;-31
2022/12/25 05:28:13;;;;;;;2.88;1.33;;;;;;;8.77;100.00;101389.78;5057653;27;97772;-30
2022/12/25 05:30:39;;;;;;;3.50;2.03;;;;;;;8.76;100.00;101380.81;5057680;27;96609;-30
2022/12/25 05:33:05;;;;;;;6.88;1.60;;;;;;;8.75;100.00;101388.97;5058255;27;96764;-30
2022/12/25 05:35:30;;;;;;;4.88;1.80;;;;;;;8.79;100.00;101388.78;5057827;27;97977;-30
2022/12/25 05:37:55;;;;;;;4.07;1.77;;;;;;;8.79;100.00;101390.59;5057775;27;97680;-31
2022/12/25 05:40:21;;;;;;;3.00;1.85;;;;;;;8.79;100.00;101398.72;5058096;27;96560;-32
2022/12/25 05:42:46;;;;;;;4.28;2.08;;;;;;;8.80;100.00;101393.25;5058122;27;96795;-30
2022/12/25 05:45:11;;;;;;;3.08;1.77;;;;;;;8.75;100.00;101400.69;5057793;27;97887;-30
2022/12/25 05:47:37;;;;;;;4.97;1.85;;;;;;;8.76;100.00;101386.22;5057926;27;98419;-31
2022/12/25 05:50:03;;;;;;;5.88;2.00;;;;;;;8.75;100.00;101387.19;5057928;27;96526;-30
2022/12/25 05:52:33;;;;;;;3.10;1.83;;;;;;;8.76;100.00;101386.22;5056268;27;96832;-31
2022/12/25 05:54:58;;;;;;;4.22;2.00;;;;;;;8.77;100.00;101370.88;5055476;27;101085;-30
2022/12/25 05:57:24;;;;;;;3.13;1.88;;;;;;;8.79;100.00;101375.25;5055870;27;100686;-31
2022/12/25 05:59:50;;;;;;;3.33;1.80;;;;;;;8.80;100.00;101368.94;5057737;27;96633;-30
2022/12/25 06:02:15;;;;;;;4.97;2.08;;;;;;;8.80;100.00;101366.22;5058123;27;97139;-30
2022/12/25 06:04:40;;;;;;;5.18;2.03;;;;;;;8.79;100.00;101359.06;5057380;27;97471;-30
2022/12/25 06:07:06;;;;;;;6.43;2.10;;;;;;;8.79;100.00;101363.59;5057342;27;97253;-31
2022/12/25 06:09:31;;;;;;;4.20;1.88;;;;;;;8.82;100.00;101377.84;5057747;27;96572;-30
2022/12/25 06:11:56;;;;;;;3.63;2.35;;;;;;;8.82;100.00;101369.75;5057774;27;96814;-31
2022/12/25 06:14:22;;;;;;;3.97;1.70;;;;;;;8.78;100.00;101360.03;5057240;27;97968;-30
2022/12/25 06:16:51;;;;;;;3.92;2.10;;;;;;;8.80;100.00;101358.13;5057157;27;97225;-30
2022/12/25 06:19:16;;;;;;;1.33;1.08;;;;;;;8.81;100.00;101348.19;5055395;27;96773;-30
2022/12/25 06:21:41;;;;;;;2.95;1.75;;;;;;;8.82;100.00;101342.72;5056819;27;96890;-30
2022/12/25 06:24:07;;;;;;;6.57;1.58;;;;;;;8.80;100.00;101336.53;5056233;27;98481;-30
2022/12/25 06:26:32;;;;;;;6.30;1.63;;;;;;;8.82;100.00;101348.13;5055669;27;97769;-30
2022/12/25 06:28:57;;;;;;;5.20;1.90;;;;;;;8.77;100.00;101339.38;5057052;27;96514;-30
2022/12/25 06:31:23;;;;;;;2.60;1.48;;;;;;;8.82;100.00;101347.22;5057262;27;96855;-30
2022/12/25 06:33:48;;;;;;;3.90;1.67;;;;;;;8.83;100.00;101349.00;5057050;27;97977;-31
2022/12/25 06:36:25;;;;;;;3.63;2.05;;;;;;;8.83;100.00;101341.78;5057349;27;97985;-30
2022/12/25 06:38:51;;;;;;;6.45;1.38;;;;;;;8.83;100.00;101338.19;5057007;27;96588;-32
2022/12/25 06:41:19;;;;;;;2.47;1.75;;;;;;;8.84;100.00;101338.13;5057198;27;96729;-31
2022/12/25 06:43:54;;;;;;;4.43;1.83;;;;;;;8.85;100.00;101329.06;5056264;27;97448;-30
2022/12/25 06:46:20;;;;;;;3.65;2.03;;;;;;;8.87;100.00;101329.00;5055327;27;101021;-31
2022/12/25 06:48:49;;;;;;;3.03;1.70;;;;;;;8.87;100.00;101323.63;5055533;27;96746;-31
2022/12/25 06:51:16;;;;;;;2.17;1.45;;;;;;;8.86;100.00;101325.41;5055532;27;96844;-30
2022/12/25 06:53:41;;;;;;;2.78;1.90;;;;;;;8.86;100.00;101322.72;5054877;27;101051;-30
2022/12/25 06:56:14;;;;;;;3.03;1.95;;;;;;;8.88;100.00;101309.16;5056460;27;97753;-31
2022/12/25 06:58:40;;;;;;;4.80;2.03;;;;;;;8.88;100.00;101317.25;5057079;27;96711;-30
2022/12/25 07:01:13;;;;;;;2.55;1.77;;;;;;;8.88;100.00;101325.34;5057205;27;96723;-31
2022/12/25 07:03:41;;;;;;;3.17;1.98;;;;;;;8.87;100.00;101324.47;5056548;27;97535;-30
2022/12/25 07:06:06;;;;;;;4.20;2.50;;;;;;;8.86;100.00;101322.72;5054259;27;101000;-30
2022/12/25 07:08:32;;;;;;;4.05;2.20;;;;;;;8.87;100.00;101324.47;5056330;27;96641;-31
2022/12/25 07:10:57;;;;;;;3.22;1.77;;;;;;;8.89;100.00;101327.09;5056861;27;96744;-30
2022/12/25 07:13:22;;;;;;;4.78;2.30;;;;;;;8.88;100.00;101326.22;5056241;27;99870;-30
2022/12/25 07:15:54;;;;;;;2.58;1.38;;;;;;;8.87;100.00;101318.22;5056409;27;97259;-32
2022/12/25 07:18:20;;;;;;;7.93;2.40;;;;;;;8.87;100.00;101326.31;5055324;27;96658;-30
2022/12/25 07:20:45;;;;;;;4.30;2.45;;;;;;;8.86;100.00;101325.41;5055989;27;96948;-30
2022/12/25 07:23:10;;;;;;;6.10;2.60;;;;;;;8.89;100.00;101325.28;5053123;27;97880;-32
2022/12/25 07:25:35;;;;;;;3.63;2.03;;;;;;;8.85;100.00;101320.97;5053910;27;98365;-31
2022/12/25 07:28:01;;;;;;;3.05;2.10;;;;;;;8.88;100.00;101320.81;5053870;27;97085;-32
2022/12/25 07:30:27;;;;;;;4.88;2.83;;;;;;;8.88;100.00;101338.84;5053692;27;96985;-33
2022/12/25 07:32:53;;;;;;;4.28;2.55;;;;;;;8.90;100.00;101345.94;5052570;27;99343;-33
2022/12/25 07:35:18;;;;;;;4.85;2.65;;;;;;;8.90;100.00;101345.94;5053433;27;97931;-33
2022/12/25 07:37:43;;;;;;;3.67;2.22;;;;;;;8.92;100.00;101341.34;5055957;27;96707;-30
2022/12/25 07:40:09;;;;;;;4.93;2.72;;;;;;;8.89;100.00;101349.59;5056049;27;96863;-31
2022/12/25 07:42:34;;;;;;;3.47;1.90;;;;;;;8.89;100.00;101349.59;5055831;27;97194;-30
2022/12/25 07:45:00;;;;;;;3.22;2.25;;;;;;;8.88;100.00;101350.53;5056200;27;97237;-30
2022/12/25 07:47:25;;;;;;;3.67;2.22;;;;;;;8.89;100.00;101348.69;5056011;27;96629;-31
2022/12/25 07:49:50;;;;;;;4.68;2.55;;;;;;;8.89;100.00;101355.00;5056539;27;96812;-30
2022/12/25 07:52:16;;;;;;;4.32;2.72;;;;;;;8.93;100.00;101358.44;5055845;27;97903;-30
2022/12/25 07:54:41;;;;;;;2.63;2.00;;;;;;;8.90;100.00;101356.75;5055639;27;97760;-31
2022/12/25 07:57:07;;;;;;;2.65;1.83;;;;;;;8.92;100.00;101364.78;5055815;27;96512;-31
2022/12/25 07:59:32;;;;;;;5.70;2.92;;;;;;;8.94;100.00;101365.59;5056079;27;96749;-30
2022/12/25 08:01:57;;;;;;;5.82;2.42;;;;;;;8.93;100.00;101367.41;5055917;27;97486;-29
2022/12/25 08:04:22;;;;;;;6.13;2.38;;;;;;;8.95;100.00;101374.56;5055208;27;102542;-30
2022/12/25 08:06:48;;;;;;;3.58;2.45;;;;;;;8.94;100.00;101371.00;5055333;27;96454;-31
2022/12/25 08:09:13;;;;;;;5.72;2.85;;;;;;;8.93;100.00;101375.50;5055740;27;96857;-32
2022/12/25 08:11:46;;;;;;;5.07;2.10;;;;;;;8.93;100.00;101380.91;5055587;27;97903;-30
2022/12/25 08:14:11;;;;;;;3.78;1.83;;;;;;;8.91;100.00;101374.72;5055904;27;97877;-31
2022/12/25 08:16:40;;;;;;;4.47;2.47;;;;;;;8.89;100.00;101370.31;5055672;27;96641;-30
2022/12/25 08:19:06;;;;;;;5.90;3.15;;;;;;;8.88;100.00;101365.88;5054166;27;97559;-30
2022/12/25 08:21:31;;;;;;;5.38;2.95;;;;;;;8.91;100.00;101363.03;5054233;27;97986;-32
2022/12/25 08:23:57;;;;;;;4.85;2.47;;;;;;;8.91;100.00;101361.22;5055081;27;100786;-30
2022/12/25 08:26:22;;;;;;;4.85;2.15;;;;;;;8.90;100.00;101356.75;5055455;27;96618;-32
2022/12/25 08:28:49;;;;;;;5.63;2.92;;;;;;;8.94;100.00;101357.50;5054017;27;96871;-30
2022/12/25 08:31:26;;;;;;;5.47;3.28;;;;;;;8.93;100.00;101343.09;5055126;27;97319;-30
2022/12/25 08:33:54;;;;;;;4.88;2.90;;;;;;;8.91;100.00;101336.91;5053776;27;101249;-30
2022/12/25 08:36:20;;;;;;;5.78;3.42;;;;;;;8.92;100.00;101352.16;5053964;27;96506;-30
2022/12/25 08:38:46;;;;;;;5.13;2.83;;;;;;;8.91;100.00;101354.91;5054184;27;96861;-31
2022/12/25 08:41:12;;;;;;;4.80;2.38;;;;;;;8.85;100.00;101353.38;5054961;27;98158;-30
2022/12/25 08:43:38;;;;;;;7.72;2.75;;;;;;;8.85;100.00;101360.63;5053593;27;100744;-31
2022/12/25 08:46:04;;;;;;;5.57;2.38;;;;;;;8.83;100.00;101357.09;5054297;27;96750;-31
2022/12/25 08:48:30;;;;;;;5.05;2.47;;;;;;;8.85;100.00;101350.69;5052905;27;96894;-30
2022/12/25 08:50:56;;;;;;;5.15;2.92;;;;;;;8.85;100.00;101366.91;5054689;27;99772;-30
2022/12/25 08:53:21;;;;;;;5.60;2.55;;;;;;;8.85;100.00;101372.28;5055026;27;97748;-30
2022/12/25 08:55:47;;;;;;;6.68;2.67;;;;;;;8.85;100.00;101377.69;5055285;27;96594;-30
2022/12/25 08:58:15;;;;;;;3.85;1.95;;;;;;;8.83;100.00;101366.09;5055124;27;96831;-30
2022/12/25 09:00:41;;;;;;;6.72;2.83;;;;;;;8.84;100.00;101373.25;5053196;27;100993;-30
2022/12/25 09:03:06;;;;;;;5.03;1.80;;;;;;;8.82;100.00;101371.53;5054964;27;99120;-30
2022/12/25 09:05:36;;;;;;;2.53;1.77;;;;;;;8.85;100.00;101380.41;5054779;27;96557;-30
2022/12/25 09:08:02;;;;;;;4.35;2.55;;;;;;;8.84;100.00;101377.75;5053528;27;96817;-30
2022/12/25 09:10:27;;;;;;;3.92;2.17;;;;;;;8.80;100.00;101379.75;5054246;27;98283;-31
2022/12/25 09:12:53;;;;;;;2.50;1.48;;;;;;;8.81;100.00;101380.59;5054510;27;97346;-30
2022/12/25 09:15:18;;;;;;;5.57;1.88;;;;;;;8.85;100.00;101391.22;5054474;27;97602;-30
2022/12/25 09:17:43;;;;;;;5.65;2.63;;;;;;;8.83;100.00;101384.13;5053575;27;96887;-30
2022/12/25 09:20:09;;;;;;;4.75;2.45;;;;;;;8.85;100.00;101399.31;5055007;27;97031;-30
2022/12/25 09:22:34;;;;;;;4.43;1.88;;;;;;;8.85;100.00;101387.63;5053881;27;97360;-30
2022/12/25 09:24:59;;;;;;;7.75;1.67;;;;;;;8.85;100.00;101391.22;5054597;27;96550;-30
2022/12/25 09:27:25;;;;;;;7.85;2.63;;;;;;;8.85;100.00;101390.34;5055063;27;96789;-31
2022/12/25 09:29:51;;;;;;;4.53;2.20;;;;;;;8.85;100.00;101390.34;5054336;27;97816;-30
2022/12/25 09:32:16;;;;;;;8.38;2.50;;;;;;;8.84;100.00;101378.66;5054148;27;97272;-31
2022/12/25 09:34:41;;;;;;;3.78;1.73;;;;;;;8.82;100.00;101375.16;5054213;27;96541;-30
2022/12/25 09:37:07;;;;;;;6.65;2.47;;;;;;;8.85;100.00;101364.19;5054624;27;96815;-31
2022/12/25 09:39:32;;;;;;;2.90;1.83;;;;;;;8.85;100.00;101360.63;5054287;27;97938;-30
2022/12/25 09:42:02;;;;;;;2.67;1.50;;;;;;;8.86;100.00;101370.47;5054303;27;97280;-32
2022/12/25 09:44:36;;;;;;;3.85;2.10;;;;;;;8.87;100.00;101364.13;5052737;27;96686;-30
2022/12/25 09:47:07;;;;;;;4.65;2.55;;;;;;;8.86;100.00;101365.94;5053281;27;96790;-30
2022/12/25 09:49:48;;;;;;;3.40;1.80;;;;;;;8.87;100.00;101350.63;5052644;27;101378;-32
2022/12/25 09:52:18;;;;;;;3.10;1.88;;;;;;;8.84;100.00;101330.03;5052956;27;100877;-33
2022/12/25 09:55:10;;;;;;;4.18;2.13;;;;;;;8.89;100.00;101348.69;5052878;27;96618;-31
2022/12/25 09:57:36;;;;;;;4.15;2.22;;;;;;;8.86;100.00;101347.03;5043327;27;96806;-30
2022/12/25 10:00:01;;;;;;;4.47;2.33;;;;;;;8.87;100.00;101338.00;5055085;27;97439;-30
2022/12/25 10:02:46;;;;;;;3.92;2.03;;;;;;;8.86;100.00;101335.34;5057324;27;99205;-30
2022/12/25 10:05:33;;;;;;;3.33;1.83;;;;;;;8.87;100.00;101326.31;5056241;27;96708;-31
2022/12/25 10:08:06;;;;;;;7.05;2.45;;;;;;;8.87;100.00;101313.69;5057992;27;96618;-30
2022/12/25 10:10:31;;;;;;;4.90;2.40;;;;;;;8.91;100.00;101326.09;5057595;27;97492;-30
2022/12/25 10:13:22;;;;;;;4.10;1.88;;;;;;;8.91;100.00;101328.81;5057275;27;97862;-30
2022/12/25 10:16:16;;;;;;;4.53;2.40;;;;;;;8.90;100.00;101327.03;5056000;27;96884;-30
2022/12/25 10:18:50;;;;;;;7.18;1.95;;;;;;;8.92;100.00;101325.13;5056576;27;96753;-30
2022/12/25 10:21:17;;;;;;;4.18;1.85;;;;;;;8.92;100.00;101314.34;5057153;27;97493;-30
2022/12/25 10:23:51;;;;;;;8.02;2.70;;;;;;;8.92;100.00;101316.16;5055559;27;100577;-30
2022/12/25 10:26:21;;;;;;;5.28;2.78;;;;;;;8.92;100.00;101319.72;5056944;27;96616;-30
2022/12/25 10:29:04;;;;;;;3.63;2.38;;;;;;;8.90;100.00;101318.94;5055711;27;96947;-30
2022/12/25 10:31:34;;;;;;;2.65;1.77;;;;;;;8.91;100.00;101311.69;5055301;27;100824;-31
2022/12/25 10:34:00;;;;;;;2.38;1.67;;;;;;;8.91;100.00;101307.19;5055608;27;100916;-30
2022/12/25 10:36:27;;;;;;;4.85;2.60;;;;;;;8.89;100.00;101305.47;5057251;27;97060;-30
2022/12/25 10:38:53;;;;;;;4.88;2.20;;;;;;;8.85;100.00;101310.16;5057289;27;96760;-30
2022/12/25 10:41:44;;;;;;;8.32;2.80;;;;;;;8.88;100.00;101315.41;5055313;27;101101;-30
2022/12/25 10:44:19;;;;;;;5.38;2.15;;;;;;;8.87;100.00;101318.22;5057142;27;97839;-30
2022/12/25 10:46:51;;;;;;;6.43;2.63;;;;;;;8.86;100.00;101298.41;5055756;27;96596;-31
2022/12/25 10:49:21;;;;;;;11.07;2.30;;;;;;;8.89;100.00;101291.97;5056835;27;96771;-30
2022/12/25 10:51:46;;;;;;;3.78;2.35;;;;;;;8.90;100.00;101291.03;5054759;27;103417;-31
2022/12/25 10:54:31;;;;;;;6.00;2.15;;;;;;;8.92;100.00;101281.03;5056614;27;97233;-30
2022/12/25 10:57:24;;;;;;;5.03;2.45;;;;;;;8.95;100.00;101270.06;5055532;27;96724;-30
2022/12/25 10:59:55;;;;;;;7.28;3.92;;;;;;;8.93;100.00;101261.16;5051424;27;96847;-30
2022/12/25 11:02:25;;;;;;;6.38;3.88;;;;;;;8.96;100.00;101252.03;5055135;27;101006;-30
2022/12/25 11:05:00;;;;;;;4.75;2.97;;;;;;;8.95;100.00;101245.75;5055078;27;100931;-31
2022/12/25 11:07:25;;;;;;;6.25;3.22;;;;;;;8.93;100.00;101243.13;5055260;27;96690;-31
2022/12/25 11:09:58;;;;;;;10.25;3.00;;;;;;;8.93;100.00;101237.72;5055395;27;96767;-30
2022/12/25 11:12:34;;;;;;;4.00;2.03;;;;;;;8.97;100.00;101238.47;5054906;27;100572;-31
2022/12/25 11:15:05;;;;;;;3.10;2.17;;;;;;;8.99;100.00;101225.75;5056396;27;97306;-30
2022/12/25 11:17:30;;;;;;;4.73;2.23;;;;;;;9.03;100.00;101243.56;5054568;27;96563;-30
2022/12/25 11:19:58;;;;;;;6.32;2.95;;;;;;;9.02;100.00;101247.22;5056739;27;96760;-30
2022/12/25 11:22:25;;;;;;;4.97;3.10;;;;;;;9.02;100.00;101249.06;5053813;27;101028;-30
2022/12/25 11:24:51;;;;;;;3.42;2.28;;;;;;;9.06;100.00;101248.81;5054648;27;100892;-30
2022/12/25 11:27:23;;;;;;;3.92;2.05;;;;;;;9.06;100.00;101240.72;5056400;27;96663;-30
2022/12/25 11:29:50;;;;;;;;;;;;;;;9.09;100.00;101245.09;5056786;27;96705;-31
2022/12/25 11:32:20;;;;;;;8.02;2.50;;;;;;;9.04;100.00;101223.69;5056059;27;97316;-30
2022/12/25 11:34:47;;;;;;;9.63;3.67;;;;;;;9.06;100.00;101234.44;5054790;27;100754;-30
2022/12/25 11:37:47;;;;;;;7.53;3.47;;;;;;;9.10;100.00;101227.91;5054748;27;96562;-30
2022/12/25 11:40:16;;;;;;;4.93;2.47;;;;;;;9.07;100.00;101239.75;5049129;27;96684;-30
2022/12/25 11:42:51;;;;;;;4.15;2.58;;;;;;;9.06;100.00;101232.63;5053910;27;99313;-30
2022/12/25 11:45:25;;;;;;;5.85;2.47;;;;;;;9.06;100.00;101229.91;5054103;27;100809;-30
2022/12/25 11:48:20;;;;;;;4.70;2.63;;;;;;;9.12;100.00;101228.72;5054497;27;96788;-33
2022/12/25 11:50:51;;;;;;;5.32;2.42;;;;;;;9.15;100.00;101225.84;5054745;27;96793;-31
2022/12/25 11:53:26;;;;;;;9.23;2.85;;;;;;;9.12;100.00;101207.97;5055944;27;97928;-31
2022/12/25 11:55:57;;;;;;;4.50;2.97;;;;;;;9.10;100.00;101176.56;5054366;27;99199;-31
2022/12/25 11:58:30;;;;;;;5.68;3.22;;;;;;;9.13;100.00;101182.72;5054495;27;96699;-30
2022/12/25 12:00:57;;;;;;;10.88;2.83;;;;;;;9.14;100.00;101180.88;5054918;27;96702;-30
2022/12/25 12:03:36;;;;;;;3.70;2.30;;;;;;;9.11;100.00;101165.69;5053945;27;100787;-31
2022/12/25 12:06:27;;;;;;;10.98;2.55;;;;;;;9.13;100.00;101168.34;5054015;27;100819;-31
2022/12/25 12:09:00;;;;;;;7.60;2.33;;;;;;;9.13;100.00;101165.63;5055329;27;96645;-30
2022/12/25 12:11:25;;;;;;;4.25;2.42;;;;;;;9.14;100.00;101167.38;5054515;27;97156;-31
2022/12/25 12:14:10;;;;;;;4.80;2.63;;;;;;;9.12;100.00;101163.88;5055360;27;99785;-32
2022/12/25 12:16:35;;;;;;;4.72;2.67;;;;;;;9.08;100.00;101165.88;5053765;27;100934;-30
2022/12/25 12:19:12;;;;;;;4.03;2.55;;;;;;;9.10;100.00;101173.88;5055652;27;96507;-30
2022/12/25 12:21:38;;;;;;;2.75;1.88;;;;;;;9.07;100.00;101168.63;5054287;27;96766;-30
2022/12/25 12:24:19;;;;;;;4.28;2.17;;;;;;;9.03;100.00;101181.41;5053477;27;100760;-31
2022/12/25 12:26:57;;;;;;;8.60;2.83;;;;;;;9.03;100.00;101189.50;5054165;27;100818;-30
2022/12/25 12:29:30;;;;;;;4.45;1.85;;;;;;;9.01;100.00;101177.03;5054022;27;96527;-30
2022/12/25 12:32:02;;;;;;;6.40;2.83;;;;;;;9.03;100.00;101169.72;5054117;27;97155;-30
2022/12/25 12:34:41;;;;;;;6.47;2.92;;;;;;;9.04;100.00;101168.78;5053253;27;100939;-30
2022/12/25 12:37:27;;;;;;;5.60;2.92;;;;;;;9.06;100.00;101173.16;5053722;27;100790;-30
2022/12/25 12:39:53;;;;;;;10.02;4.25;;;;;;;9.06;100.00;101169.59;5053896;27;96616;-30
2022/12/25 12:42:24;;;;;;;4.88;2.70;;;;;;;9.04;100.00;101155.28;5053783;27;96719;-32
2022/12/25 12:44:52;;;;;;;5.93;3.33;;;;;;;9.08;100.00;101148.75;5053536;27;100826;-31
2022/12/25 12:47:38;;;;;;;3.97;2.80;;;;;;;9.08;100.00;101144.25;5053406;27;101050;-31
2022/12/25 12:50:05;;;;;;;9.57;3.35;;;;;;;9.11;100.00;101138.69;5055262;27;97088;-30
2022/12/25 12:52:35;;;;;;;10.10;3.58;;;;;;;9.12;100.00;101131.44;5054005;27;96801;-30
2022/12/25 12:55:12;;;;;;;5.53;2.80;;;;;;;9.10;100.00;101126.09;5055046;27;97516;-30
2022/12/25 12:57:39;;;;;;;6.95;2.40;;;;;;;9.10;100.00;101122.53;5055101;27;97861;-30
2022/12/25 13:00:14;;;;;;;5.53;2.72;;;;;;;9.11;100.00;101127.88;5053033;27;96482;-31
2022/12/25 13:02:58;;;;;;;3.95;1.95;;;;;;;9.12;100.00;101128.72;5054817;27;96665;-31
2022/12/25 13:05:38;;;;;;;3.78;1.88;;;;;;;9.10;100.00;101126.09;5054479;27;99308;-30
2022/12/25 13:08:18;;;;;;;4.45;2.55;;;;;;;9.10;100.00;101114.41;5053260;27;100779;-30
2022/12/25 13:10:48;;;;;;;3.70;2.28;;;;;;;9.07;100.00;101110.06;5053385;27;96865;-30
2022/12/25 13:13:22;;;;;;;6.38;3.00;;;;;;;9.04;100.00;101098.53;5053467;27;96788;-30
2022/12/25 13:15:49;;;;;;;6.03;2.78;;;;;;;9.03;100.00;101104.88;5053236;27;100734;-32
2022/12/25 13:18:15;;;;;;;4.45;2.78;;;;;;;9.01;100.00;101106.78;5053490;27;100687;-32